Time;durP1;ratioP1;P1;durP2;ratioP2;P2;SDS_P1;SDS_P2;PMS_P1;PMS_P2;Temp;Humidity;BMP_temperature;BMP_pressure;BME280_temperature;BME280_humidity;BME280_pressure;Samples;Min_cycle;Max_cycle;Signal;HPM_P1;HPM_P2
2023/07/28 00:01:03;;;;;;;5.18;3.50;;;;;;;18.84;77.45;95044.13;4934736;29;20675;-84
2023/07/28 00:03:30;;;;;;;3.50;3.20;;;;;;;18.82;77.19;95045.38;4935626;29;20667;-84
2023/07/28 00:05:56;;;;;;;3.40;3.10;;;;;;;18.82;77.46;95051.38;4938348;29;20284;-84
2023/07/28 00:08:23;;;;;;;3.03;2.72;;;;;;;18.82;77.15;95046.16;4936868;29;20198;-84
2023/07/28 00:10:49;;;;;;;3.80;3.20;;;;;;;18.82;77.02;95037.56;4937607;29;20257;-84
2023/07/28 00:13:15;;;;;;;3.88;3.00;;;;;;;18.70;78.39;95068.13;4937149;29;20664;-84
2023/07/28 00:15:42;;;;;;;3.30;3.00;;;;;;;18.65;78.62;95068.88;4937939;29;20217;-84
2023/07/28 00:18:10;;;;;;;3.13;2.90;;;;;;;18.66;78.80;95077.50;4928498;29;20233;-84
2023/07/28 00:20:36;;;;;;;3.13;2.92;;;;;;;18.57;80.61;95097.94;4937065;29;20579;-84
2023/07/28 00:23:03;;;;;;;3.22;2.95;;;;;;;18.58;80.24;95089.88;4937418;29;20614;-84
2023/07/28 00:25:29;;;;;;;3.55;3.25;;;;;;;18.61;80.43;95094.63;4936289;29;20228;-85
2023/07/28 00:27:56;;;;;;;3.75;3.38;;;;;;;18.63;79.57;95076.94;4936426;29;20206;-84
2023/07/28 00:30:23;;;;;;;3.65;3.35;;;;;;;18.67;79.20;95071.22;4936374;29;20221;-84
2023/07/28 00:32:50;;;;;;;4.43;3.20;;;;;;;18.62;80.50;95088.41;4936469;29;20198;-84
2023/07/28 00:35:18;;;;;;;3.40;3.10;;;;;;;18.69;79.46;95069.16;4934988;29;20228;-84
2023/07/28 00:37:44;;;;;;;3.63;3.33;;;;;;;18.68;79.64;95080.63;4936696;29;20635;-84
2023/07/28 00:40:12;;;;;;;3.67;3.30;;;;;;;18.65;79.48;95066.28;4937217;29;20300;-84
2023/07/28 00:42:38;;;;;;;3.40;3.10;;;;;;;18.67;79.64;95066.00;4936045;29;20213;-85
2023/07/28 00:45:06;;;;;;;3.40;3.10;;;;;;;18.69;78.69;95048.31;4936906;29;20222;-84
2023/07/28 00:47:32;;;;;;;4.85;3.90;;;;;;;18.70;78.70;95045.47;4936379;29;20194;-83
2023/07/28 00:49:59;;;;;;;4.07;3.00;;;;;;;18.82;77.57;95024.50;4936031;29;20680;-86
2023/07/28 00:52:27;;;;;;;3.00;2.80;;;;;;;18.78;77.37;95018.97;4937021;29;20206;-84
2023/07/28 00:54:53;;;;;;;3.80;2.97;;;;;;;18.84;76.29;95001.59;4936564;29;20198;-85
2023/07/28 00:57:20;;;;;;;3.33;3.05;;;;;;;18.88;75.25;94989.63;4936350;29;20225;-84
2023/07/28 00:59:46;;;;;;;3.17;2.88;;;;;;;18.92;74.76;94975.06;4935803;29;20202;-84
2023/07/28 01:02:13;;;;;;;3.20;2.90;;;;;;;18.97;74.14;94959.47;4935745;29;20253;-84
2023/07/28 01:04:41;;;;;;;3.28;2.97;;;;;;;18.96;73.88;94948.25;4935231;29;20202;-84
2023/07/28 01:07:11;;;;;;;2.45;2.25;;;;;;;18.99;73.53;94946.97;4934795;29;20725;-84
2023/07/28 01:09:46;;;;;;;3.53;2.83;;;;;;;18.96;73.46;94945.63;4935560;29;20193;-84
2023/07/28 01:12:13;;;;;;;2.60;2.40;;;;;;;18.93;72.95;94940.91;4935077;29;20194;-84
2023/07/28 01:14:39;;;;;;;4.00;2.70;;;;;;;18.94;73.04;94937.25;4934121;29;20213;-85
2023/07/28 01:17:06;;;;;;;2.85;2.55;;;;;;;18.89;72.65;94924.16;4935408;29;20726;-85
2023/07/28 01:19:32;;;;;;;2.65;2.45;;;;;;;18.89;72.52;94929.38;4938431;29;20198;-84
2023/07/28 01:22:25;;;;;;;2.70;2.50;;;;;;;18.92;71.87;94908.03;4933126;29;20209;-84
2023/07/28 01:25:03;;;;;;;2.50;2.30;;;;;;;18.86;71.92;94911.59;4935262;29;20202;-84
2023/07/28 01:27:32;;;;;;;2.92;2.63;;;;;;;18.86;71.86;94903.78;4936116;29;20205;-85
2023/07/28 01:29:59;;;;;;;2.80;2.45;;;;;;;18.82;72.02;94912.34;4937901;29;20247;-85
2023/07/28 01:32:25;;;;;;;2.70;2.50;;;;;;;18.80;72.11;94917.03;4935552;29;20197;-84
2023/07/28 01:34:51;;;;;;;2.28;2.08;;;;;;;18.77;70.96;94873.16;4934932;29;20722;-84
2023/07/28 01:37:18;;;;;;;3.15;2.45;;;;;;;18.74;70.53;94863.22;4935189;29;20221;-84
2023/07/28 01:39:44;;;;;;;2.75;2.55;;;;;;;18.77;70.07;94852.31;4933238;29;20646;-83
2023/07/28 01:42:11;;;;;;;2.40;2.20;;;;;;;18.74;69.57;94843.16;4934791;29;20635;-83
2023/07/28 01:44:38;;;;;;;2.40;2.20;;;;;;;18.70;69.27;94831.63;4934466;29;20201;-84
2023/07/28 01:47:05;;;;;;;2.60;2.40;;;;;;;18.71;69.39;94825.38;4935779;29;20233;-85
2023/07/28 01:49:31;;;;;;;2.33;2.10;;;;;;;18.70;69.22;94826.41;4935341;29;20197;-84
2023/07/28 01:51:58;;;;;;;2.28;1.98;;;;;;;18.67;69.13;94824.28;4935082;29;20280;-84
2023/07/28 01:54:24;;;;;;;2.35;2.15;;;;;;;18.66;68.88;94812.31;4933652;29;20450;-84
2023/07/28 01:56:51;;;;;;;2.50;2.30;;;;;;;18.61;68.83;94814.84;4934592;29;20226;-84
2023/07/28 01:59:18;;;;;;;3.30;2.25;;;;;;;18.56;68.82;94815.56;4935109;29;20229;-85
2023/07/28 02:01:46;;;;;;;5.03;2.20;;;;;;;18.48;68.82;94809.97;4935652;29;20297;-84
2023/07/28 02:04:13;;;;;;;3.00;2.20;;;;;;;18.50;68.98;94813.91;4934904;29;20228;-85
2023/07/28 02:06:39;;;;;;;2.53;2.33;;;;;;;18.48;68.73;94812.56;4936008;29;20248;-84
2023/07/28 02:09:05;;;;;;;3.25;2.50;;;;;;;18.48;68.52;94804.75;4935617;29;20193;-84
2023/07/28 02:11:32;;;;;;;2.20;2.10;;;;;;;18.50;68.38;94798.25;4933565;29;20232;-84
2023/07/28 02:13:59;;;;;;;2.45;2.25;;;;;;;18.43;68.24;94800.28;4932420;29;20210;-84
2023/07/28 02:16:27;;;;;;;3.65;2.30;;;;;;;18.44;68.43;94798.47;4932117;29;20256;-84
2023/07/28 02:18:55;;;;;;;2.35;2.15;;;;;;;18.41;68.46;94798.97;4928477;29;20260;-85
2023/07/28 02:21:21;;;;;;;2.78;1.83;;;;;;;18.47;68.34;94803.97;4935508;29;20212;-84
2023/07/28 02:23:48;;;;;;;2.47;2.28;;;;;;;18.49;68.09;94796.69;4934577;29;20217;-84
2023/07/28 02:26:15;;;;;;;2.55;2.20;;;;;;;18.49;68.03;94803.72;4935217;29;20221;-84
2023/07/28 02:28:41;;;;;;;2.50;2.00;;;;;;;18.51;68.13;94805.06;4936520;29;20619;-84
2023/07/28 02:31:08;;;;;;;2.40;2.20;;;;;;;18.50;68.13;94806.09;4941887;29;20277;-85
2023/07/28 02:33:36;;;;;;;2.13;1.85;;;;;;;18.47;68.48;94811.03;4940427;29;20291;-84
2023/07/28 02:36:04;;;;;;;3.00;2.00;;;;;;;18.49;68.31;94811.53;4939420;29;20217;-84
2023/07/28 02:38:31;;;;;;;2.85;2.10;;;;;;;18.50;68.38;94808.69;4938695;29;20225;-84
2023/07/28 02:40:57;;;;;;;2.40;2.10;;;;;;;18.49;68.39;94814.16;4938950;29;20205;-84
2023/07/28 02:43:23;;;;;;;2.53;2.33;;;;;;;18.53;68.40;94802.22;4936320;29;20223;-85
2023/07/28 02:45:57;;;;;;;2.40;2.20;;;;;;;18.54;68.36;94803.78;4939518;29;20300;-85
2023/07/28 02:48:24;;;;;;;3.15;2.08;;;;;;;18.55;68.27;94800.94;4939442;29;20190;-85
2023/07/28 02:50:52;;;;;;;3.17;1.92;;;;;;;18.55;68.27;94803.53;4939292;29;20209;-84
2023/07/28 02:53:22;;;;;;;2.20;2.00;;;;;;;18.47;68.33;94803.97;4939625;29;20216;-84
2023/07/28 02:55:49;;;;;;;2.85;2.53;;;;;;;18.47;68.27;94803.22;4938267;29;20236;-84
2023/07/28 02:58:18;;;;;;;2.22;2.03;;;;;;;18.47;68.11;94803.22;4939169;29;20218;-85
2023/07/28 03:00:46;;;;;;;3.28;2.40;;;;;;;18.45;68.06;94793.03;4939715;29;20201;-84
2023/07/28 03:03:15;;;;;;;3.13;2.30;;;;;;;18.48;68.20;94799.53;4938728;29;21703;-84
2023/07/28 03:05:41;;;;;;;2.40;2.20;;;;;;;18.48;68.33;94796.94;4939486;29;20327;-86
2023/07/28 03:08:08;;;;;;;2.92;2.10;;;;;;;18.45;68.02;94793.03;4938859;29;20589;-84
2023/07/28 03:10:40;;;;;;;2.67;2.35;;;;;;;18.39;68.80;94801.03;4940199;29;20205;-84
2023/07/28 03:13:09;;;;;;;2.70;2.50;;;;;;;18.38;68.71;94809.88;4940279;29;20202;-85
2023/07/28 03:15:36;;;;;;;2.30;2.10;;;;;;;18.38;68.69;94822.91;4938378;29;21697;-84
2023/07/28 03:18:02;;;;;;;2.38;2.17;;;;;;;18.41;68.63;94819.81;4939556;29;20285;-85
2023/07/28 03:20:29;;;;;;;2.58;2.10;;;;;;;18.43;68.47;94813.31;4931748;29;20202;-84
2023/07/28 03:22:58;;;;;;;2.13;1.98;;;;;;;18.41;68.38;94806.78;4938652;29;20579;-84
2023/07/28 03:25:24;;;;;;;2.10;2.00;;;;;;;18.39;68.46;94806.22;4939070;29;20892;-85
2023/07/28 03:27:55;;;;;;;2.35;2.15;;;;;;;18.40;68.46;94813.03;4937922;29;20522;-84
2023/07/28 03:30:21;;;;;;;2.30;2.10;;;;;;;18.36;68.36;94811.94;4939419;29;20254;-84
2023/07/28 03:32:50;;;;;;;2.92;2.40;;;;;;;18.34;68.57;94814.00;4938139;29;20206;-85
2023/07/28 03:35:17;;;;;;;3.55;2.25;;;;;;;18.35;68.51;94808.53;4938442;29;20221;-84
2023/07/28 03:37:45;;;;;;;2.67;2.15;;;;;;;18.28;68.37;94820.94;4939870;29;20205;-85
2023/07/28 03:40:12;;;;;;;4.15;2.22;;;;;;;18.30;68.34;94819.69;4939295;29;20213;-84
2023/07/28 03:42:38;;;;;;;2.83;2.22;;;;;;;18.31;68.41;94825.69;4939298;29;20603;-84
2023/07/28 03:45:11;;;;;;;2.33;2.13;;;;;;;18.34;68.45;94819.19;4938486;29;20208;-84
2023/07/28 03:47:40;;;;;;;2.97;2.22;;;;;;;18.34;68.61;94827.81;4933511;29;20197;-86
2023/07/28 03:50:07;;;;;;;3.10;2.30;;;;;;;18.38;68.49;94817.69;4939264;29;20205;-84
2023/07/28 03:52:33;;;;;;;3.78;2.30;;;;;;;18.39;68.64;94821.88;4937566;29;20228;-85
2023/07/28 03:55:01;;;;;;;2.63;2.28;;;;;;;18.42;68.42;94819.56;4936628;29;20706;-85
2023/07/28 03:57:27;;;;;;;13.68;10.85;;;;;;;18.36;69.10;94828.34;4937994;29;20663;-85
2023/07/28 03:59:54;;;;;;;5.00;3.22;;;;;;;18.37;68.78;94832.53;4937490;29;20229;-84
2023/07/28 04:02:28;;;;;;;3.00;2.65;;;;;;;18.40;68.59;94823.44;4939679;29;20623;-85
2023/07/28 04:04:57;;;;;;;2.80;2.47;;;;;;;18.47;68.94;94829.28;4936372;29;20698;-85
2023/07/28 04:07:24;;;;;;;4.25;3.60;;;;;;;18.50;68.79;94821.72;4937695;29;20235;-86
2023/07/28 04:09:53;;;;;;;6.32;3.70;;;;;;;18.52;69.00;94831.91;4927086;29;20206;-84
2023/07/28 04:12:20;;;;;;;4.70;4.22;;;;;;;18.52;69.13;94840.53;4937872;29;20211;-85
2023/07/28 04:14:49;;;;;;;5.72;3.95;;;;;;;18.50;69.42;94850.41;4941194;29;20238;-84
2023/07/28 04:17:20;;;;;;;3.55;3.25;;;;;;;18.54;69.32;94856.72;4943195;29;20198;-84
2023/07/28 04:19:48;;;;;;;7.45;6.63;;;;;;;18.55;69.38;94847.88;4944075;29;20320;-85
2023/07/28 04:22:16;;;;;;;9.90;5.63;;;;;;;18.64;69.15;94845.66;4941926;29;20208;-84
2023/07/28 04:24:42;;;;;;;11.52;8.40;;;;;;;18.68;69.47;94856.38;4945523;29;20488;-84
2023/07/28 04:27:08;;;;;;;4.47;3.15;;;;;;;18.77;69.15;94853.09;4945166;29;20233;-82
2023/07/28 04:29:37;;;;;;;3.25;2.60;;;;;;;18.82;69.38;94854.97;4941742;29;20209;-85
2023/07/28 04:32:04;;;;;;;2.75;2.45;;;;;;;18.86;69.42;94864.66;4944896;29;20209;-83
2023/07/28 04:34:43;;;;;;;3.00;2.20;;;;;;;18.78;70.12;94877.34;4947592;29;20204;-82
2023/07/28 04:37:13;;;;;;;2.65;2.05;;;;;;;18.84;70.07;94881.59;4944001;29;20255;-83
2023/07/28 04:39:40;;;;;;;3.20;2.33;;;;;;;18.81;71.38;94913.38;4944889;29;20221;-83
2023/07/28 04:42:06;;;;;;;4.20;2.38;;;;;;;18.82;70.55;94897.50;4944820;29;20205;-83
2023/07/28 04:44:39;;;;;;;3.00;2.13;;;;;;;18.88;70.52;94890.50;4945458;29;20193;-82
2023/07/28 04:47:09;;;;;;;2.28;2.08;;;;;;;18.90;70.65;94891.03;4945243;29;20284;-85
2023/07/28 04:49:35;;;;;;;2.58;2.38;;;;;;;18.91;71.02;94914.28;4944353;29;20285;-83
2023/07/28 04:52:07;;;;;;;2.40;2.00;;;;;;;19.04;70.48;94900.06;4940373;29;20273;-83
2023/07/28 04:54:40;;;;;;;2.92;2.05;;;;;;;19.13;70.28;94897.78;4945351;29;20221;-83
2023/07/28 04:57:19;;;;;;;;;;;;;;;;;;;;;
2023/07/28 04:59:50;;;;;;;2.83;1.90;;;;;;;19.21;70.39;94900.75;4936740;29;20308;-85
2023/07/28 05:05:09;;;;;;;2.28;2.08;;;;;;;19.30;70.23;94914.13;4943410;29;20281;-84
2023/07/28 05:07:41;;;;;;;3.17;2.40;;;;;;;19.31;70.63;94918.31;4943268;29;20236;-85
2023/07/28 05:10:27;;;;;;;3.45;2.92;;;;;;;19.30;70.78;94922.75;4941668;29;20209;-83
2023/07/28 05:12:54;;;;;;;5.68;2.60;;;;;;;19.33;70.69;94916.25;4941936;29;20265;-83
2023/07/28 05:15:20;;;;;;;5.07;2.70;;;;;;;19.38;70.73;94931.97;4944750;29;20297;-84
2023/07/28 05:17:47;;;;;;;4.47;2.40;;;;;;;19.41;70.96;94939.31;4945967;29;20664;-84
2023/07/28 05:20:13;;;;;;;5.53;2.80;;;;;;;19.39;71.39;94953.66;4938791;29;20226;-84
2023/07/28 05:22:44;;;;;;;6.75;2.33;;;;;;;19.41;71.33;94949.75;4944651;29;20204;-84
2023/07/28 05:25:12;;;;;;;3.67;2.50;;;;;;;19.42;71.89;94959.19;4942869;29;20232;-85
2023/07/28 05:27:44;;;;;;;4.35;2.67;;;;;;;19.41;72.32;94975.88;4944011;29;20209;-84
2023/07/28 05:30:39;;;;;;;3.80;2.70;;;;;;;19.45;72.99;94986.59;4945134;29;20734;-83
2023/07/28 05:33:06;;;;;;;3.90;2.33;;;;;;;19.48;72.84;94986.88;4909997;29;20217;-83
2023/07/28 05:35:42;;;;;;;2.42;2.20;;;;;;;19.58;73.21;94999.31;4963791;23;20252;-84
2023/07/28 05:38:11;;;;;;;4.70;2.42;;;;;;;19.61;73.42;94999.59;4960441;29;20684;-84
2023/07/28 05:40:45;;;;;;;3.67;2.30;;;;;;;19.64;73.09;94999.09;4959948;29;20227;-83
2023/07/28 05:43:11;;;;;;;5.03;3.88;;;;;;;19.69;73.45;95003.56;4960145;29;20415;-85
2023/07/28 05:45:47;;;;;;;6.22;2.80;;;;;;;19.72;73.44;95010.91;4941569;29;20820;-84
2023/07/28 05:48:13;;;;;;;2.90;2.50;;;;;;;19.77;73.41;95016.19;4936324;29;20564;-84
2023/07/28 05:50:39;;;;;;;4.50;2.53;;;;;;;19.84;73.45;95021.19;4936954;29;20198;-83
2023/07/28 05:53:08;;;;;;;3.63;2.40;;;;;;;19.78;73.85;95028.22;4942852;29;20631;-83
2023/07/28 05:59:13;;;;;;;4.25;2.22;;;;;;;19.83;74.47;95040.53;4840137;29;20236;-83
2023/07/28 06:01:39;;;;;;;3.08;2.53;;;;;;;19.90;74.43;95054.97;4846748;29;20205;-83
2023/07/28 06:11:49;;;;;;;2.53;2.28;;;;;;;19.83;75.17;95077.91;4925627;29;20298;-83
2023/07/28 06:14:40;;;;;;;3.35;2.55;;;;;;;19.80;74.80;95070.56;4829481;29;20213;-82
2023/07/28 06:17:09;;;;;;;2.47;2.28;;;;;;;19.86;74.63;95071.38;4845050;29;20231;-83
2023/07/28 06:19:39;;;;;;;3.70;2.35;;;;;;;19.81;73.87;95051.25;4850627;29;20444;-84
2023/07/28 06:22:18;;;;;;;3.35;2.58;;;;;;;19.81;73.78;95059.09;4934476;29;20711;-84
2023/07/28 06:25:10;;;;;;;3.92;2.53;;;;;;;19.85;73.70;95061.97;4934472;29;20200;-85
2023/07/28 06:27:57;;;;;;;;;;;;;;;;;;;;;
2023/07/28 06:34:47;;;;;;;2.97;2.30;;;;;;;20.08;73.00;95046.00;4897799;29;20259;-85
2023/07/28 06:37:14;;;;;;;3.28;2.25;;;;;;;20.16;72.93;95045.53;4897793;29;20222;-85
2023/07/28 06:39:46;;;;;;;2.10;2.00;;;;;;;20.28;71.84;95019.22;4896242;29;20282;-85
2023/07/28 06:42:29;;;;;;;2.30;2.10;;;;;;;20.34;70.90;94994.69;4908948;29;20744;-85
2023/07/28 06:47:31;;;;;;;2.58;2.10;;;;;;;20.56;70.77;94986.75;4967713;23;20229;-86
2023/07/28 06:50:16;;;;;;;3.58;2.40;;;;;;;20.62;70.13;94977.88;4935258;29;20445;-85
2023/07/28 06:52:43;;;;;;;2.47;2.20;;;;;;;20.54;69.74;94968.69;4931699;29;20205;-85
2023/07/28 06:55:14;;;;;;;2.13;1.90;;;;;;;20.68;69.83;94969.81;4928691;29;20403;-85
2023/07/28 07:00:26;;;;;;;3.20;2.20;;;;;;;20.90;68.71;94946.09;4919824;29;20226;-84
2023/07/28 07:02:58;;;;;;;2.55;2.20;;;;;;;21.07;68.12;94943.25;4929069;29;20214;-85
2023/07/28 07:05:39;;;;;;;2.45;2.25;;;;;;;21.18;67.62;94923.13;4928801;23;20229;-85
2023/07/28 07:08:12;;;;;;;2.42;2.22;;;;;;;21.23;67.03;94905.63;4960497;29;20236;-85
2023/07/28 07:10:59;;;;;;;2.30;2.10;;;;;;;21.31;66.98;94901.72;4960111;28;20199;-85
2023/07/28 07:13:25;;;;;;;2.40;2.20;;;;;;;21.42;67.72;94924.25;4950263;29;20230;-85
2023/07/28 07:15:54;;;;;;;2.60;2.40;;;;;;;21.52;67.57;94923.50;4934805;29;20225;-84
2023/07/28 07:18:50;;;;;;;3.75;2.30;;;;;;;21.52;66.79;94887.59;4927424;29;20240;-86
2023/07/28 07:21:20;;;;;;;2.67;2.15;;;;;;;21.48;66.92;94891.78;4939896;29;20206;-85
2023/07/28 07:23:47;;;;;;;2.60;2.20;;;;;;;21.51;66.39;94888.66;4940524;29;20209;-84
2023/07/28 07:26:26;;;;;;;2.42;2.22;;;;;;;21.62;66.62;94887.59;4940862;29;20225;-85
2023/07/28 07:29:05;;;;;;;2.35;2.15;;;;;;;21.79;65.95;94878.66;4942382;29;20205;-85
2023/07/28 07:31:35;;;;;;;3.05;2.00;;;;;;;21.86;65.59;94861.63;4940078;29;20207;-85
2023/07/28 07:34:09;;;;;;;2.53;2.30;;;;;;;21.92;65.17;94833.59;4938911;29;20225;-85
2023/07/28 07:36:56;;;;;;;2.38;2.17;;;;;;;22.12;64.73;94830.16;4940719;29;20253;-85
2023/07/28 07:39:23;;;;;;;2.72;2.53;;;;;;;22.09;63.24;94775.63;4938718;29;20724;-85
2023/07/28 07:41:53;;;;;;;1.95;1.85;;;;;;;22.29;62.61;94778.19;4938770;29;20194;-85
2023/07/28 07:44:20;;;;;;;2.30;2.10;;;;;;;22.42;61.24;94712.00;4941435;29;20193;-85
2023/07/28 07:46:49;;;;;;;2.95;2.00;;;;;;;22.55;60.55;94687.78;4948392;29;20225;-87
2023/07/28 07:49:16;;;;;;;2.47;2.10;;;;;;;22.60;60.11;94668.59;4942659;29;20217;-82
2023/07/28 07:51:42;;;;;;;2.60;2.40;;;;;;;22.64;60.18;94646.00;4940487;29;20205;-81
2023/07/28 07:54:10;;;;;;;3.25;2.08;;;;;;;22.58;58.85;94619.00;4933093;29;20205;-85
2023/07/28 07:56:37;;;;;;;2.42;2.22;;;;;;;22.56;58.55;94578.34;4946120;29;20232;-83
2023/07/28 07:59:03;;;;;;;3.10;2.22;;;;;;;22.52;58.27;94575.50;4943899;29;20229;-83
2023/07/28 08:01:29;;;;;;;2.30;2.10;;;;;;;22.48;58.38;94585.00;4947006;29;20194;-82
2023/07/28 08:03:56;;;;;;;2.40;2.20;;;;;;;22.47;58.87;94593.13;4943418;29;20201;-81
2023/07/28 08:06:25;;;;;;;2.97;2.03;;;;;;;22.40;58.91;94611.81;4943745;29;20225;-82
2023/07/28 08:08:53;;;;;;;2.97;2.10;;;;;;;22.37;59.75;94642.00;4945556;29;20197;-83
2023/07/28 08:11:21;;;;;;;2.58;2.38;;;;;;;22.54;59.56;94632.94;4943491;29;20260;-82
2023/07/28 08:13:48;;;;;;;2.35;2.13;;;;;;;22.73;59.05;94631.22;4944660;29;20206;-86
2023/07/28 08:16:16;;;;;;;2.85;1.95;;;;;;;22.97;58.74;94632.09;4942984;29;20221;-87
2023/07/28 08:18:43;;;;;;;2.28;2.08;;;;;;;23.12;58.24;94597.00;4924459;29;20238;-86
2023/07/28 08:21:12;;;;;;;3.30;2.53;;;;;;;23.19;58.44;94586.19;4925450;29;20214;-84
2023/07/28 08:23:42;;;;;;;2.40;2.08;;;;;;;23.25;58.06;94592.94;4947035;29;20273;-86
2023/07/28 08:26:08;;;;;;;2.15;2.05;;;;;;;23.49;57.73;94592.91;4949858;29;20221;-84
2023/07/28 08:28:55;;;;;;;2.10;1.90;;;;;;;23.49;58.11;94592.91;4949110;29;20213;-86
2023/07/28 08:31:27;;;;;;;4.40;4.07;;;;;;;23.37;58.41;94599.38;4949290;29;20205;-86
2023/07/28 08:33:53;;;;;;;2.30;2.10;;;;;;;23.42;58.38;94612.44;4950477;29;20380;-86
2023/07/28 08:36:25;;;;;;;2.50;2.30;;;;;;;23.56;58.73;94620.47;4949958;29;20320;-85
2023/07/28 08:39:12;;;;;;;3.55;1.98;;;;;;;23.59;59.10;94645.41;4947013;29;20198;-85
2023/07/28 08:41:39;;;;;;;2.63;2.38;;;;;;;23.63;58.23;94602.50;4943490;29;20213;-85
2023/07/28 08:44:07;;;;;;;2.28;2.08;;;;;;;23.67;58.55;94615.84;4929827;29;20230;-85
2023/07/28 08:46:40;;;;;;;1.98;1.88;;;;;;;24.02;58.52;94641.72;4929212;29;20785;-84
2023/07/28 08:49:26;;;;;;;2.38;2.17;;;;;;;24.18;57.35;94573.88;4928933;29;20202;-87
2023/07/28 08:52:16;;;;;;;2.40;2.20;;;;;;;24.27;56.85;94548.50;4940734;29;20278;-87
2023/07/28 08:55:00;;;;;;;;;;;;;;;;;;;;;
2023/07/28 08:57:28;;;;;;;2.03;1.92;;;;;;;24.14;56.49;94525.53;4949211;29;20198;-86
2023/07/28 08:59:56;;;;;;;2.75;2.20;;;;;;;24.17;57.17;94559.16;4934665;29;20221;-85
2023/07/28 09:02:23;;;;;;;2.72;2.22;;;;;;;24.19;57.08;94561.50;4930463;29;20269;-85
2023/07/28 09:05:03;;;;;;;2.40;2.20;;;;;;;24.18;57.22;94575.72;4928610;29;20202;-85
2023/07/28 09:07:36;;;;;;;2.35;2.15;;;;;;;24.09;56.94;94568.47;4926406;29;20234;-86
2023/07/28 09:10:03;;;;;;;2.33;2.13;;;;;;;24.05;56.90;94549.06;4935351;29;20203;-86
2023/07/28 09:12:32;;;;;;;1.98;1.77;;;;;;;23.91;57.11;94552.72;4935911;29;20225;-85
2023/07/28 09:15:16;;;;;;;2.05;1.95;;;;;;;23.92;57.46;94575.31;4924415;29;20251;-86
2023/07/28 09:24:46;;;;;;;;;;;;;;;;;;;;;
2023/07/28 09:30:27;;;;;;;2.10;1.83;;;;;;;23.53;57.67;94586.84;4941200;29;20205;-84
2023/07/28 09:32:56;;;;;;;2.58;2.38;;;;;;;23.54;57.45;94590.25;4943785;29;20209;-86
2023/07/28 09:35:23;;;;;;;2.58;2.35;;;;;;;23.47;57.27;94571.41;4941808;29;20374;-86
2023/07/28 09:38:09;;;;;;;3.08;2.30;;;;;;;23.46;57.49;94568.00;4941494;29;20212;-87
2023/07/28 09:41:00;;;;;;;2.20;2.10;;;;;;;23.53;57.59;94602.63;4935134;29;20246;-85
2023/07/28 09:43:27;;;;;;;3.28;2.33;;;;;;;23.43;57.44;94568.56;4937499;29;20277;-87
2023/07/28 09:45:56;;;;;;;2.63;2.10;;;;;;;23.51;57.91;94596.03;4938736;29;20252;-85
2023/07/28 09:48:45;;;;;;;2.42;2.22;;;;;;;23.51;57.18;94581.06;4934138;29;20293;-85
2023/07/28 09:51:15;;;;;;;2.88;2.30;;;;;;;23.55;57.48;94574.22;4936726;29;20266;-85
2023/07/28 09:54:07;;;;;;;3.83;1.92;;;;;;;23.64;56.97;94575.16;4935818;29;20249;-85
2023/07/28 09:56:34;;;;;;;2.47;2.28;;;;;;;23.72;57.21;94564.00;4949540;29;20285;-88
2023/07/28 09:59:15;;;;;;;2.20;2.00;;;;;;;23.83;56.57;94551.53;4935512;29;20209;-85
2023/07/28 10:01:47;;;;;;;2.10;2.00;;;;;;;24.47;55.73;94515.03;4943956;29;20221;-86
2023/07/28 10:04:16;;;;;;;6.57;2.30;;;;;;;24.67;55.87;94512.03;4938540;29;20213;-85
2023/07/28 10:06:45;;;;;;;2.30;2.10;;;;;;;24.68;54.50;94461.75;4943950;29;20226;-84
2023/07/28 10:09:12;;;;;;;3.65;2.20;;;;;;;24.75;55.29;94477.16;4944291;29;20205;-83
2023/07/28 10:11:39;;;;;;;2.40;2.20;;;;;;;24.65;54.92;94464.94;4947883;29;20819;-84
2023/07/28 10:14:10;;;;;;;2.25;2.05;;;;;;;24.54;54.20;94436.50;4933685;29;20198;-85
2023/07/28 10:16:39;;;;;;;2.20;2.00;;;;;;;24.36;53.92;94414.44;4942261;29;20249;-85
2023/07/28 10:19:07;;;;;;;2.58;2.20;;;;;;;24.42;54.18;94443.03;4945043;29;20209;-84
2023/07/28 10:21:51;;;;;;;3.83;2.10;;;;;;;24.36;54.31;94459.97;4943159;29;20269;-86
2023/07/28 10:24:18;;;;;;;2.90;2.00;;;;;;;24.33;54.21;94421.06;4925374;29;20850;-85
2023/07/28 10:26:45;;;;;;;2.92;2.15;;;;;;;24.29;54.82;94441.13;4926676;29;20230;-85
2023/07/28 10:29:39;;;;;;;2.55;2.13;;;;;;;24.23;54.33;94446.75;4925584;29;20261;-86
2023/07/28 10:32:41;;;;;;;2.10;2.00;;;;;;;24.21;54.74;94460.19;4940627;29;20216;-86
2023/07/28 10:35:10;;;;;;;2.50;2.30;;;;;;;24.15;54.70;94447.41;4925629;29;20336;-87
2023/07/28 10:37:37;;;;;;;3.67;2.20;;;;;;;24.09;54.50;94446.72;4933108;29;20229;-85
2023/07/28 10:40:23;;;;;;;2.60;2.40;;;;;;;23.96;54.53;94435.09;4943434;29;20758;-84
2023/07/28 10:42:55;;;;;;;2.30;2.10;;;;;;;23.97;54.39;94446.41;4941393;29;20244;-86
2023/07/28 10:45:24;;;;;;;2.22;2.03;;;;;;;23.96;54.77;94457.97;4930323;29;20938;-84
2023/07/28 10:47:52;;;;;;;2.60;2.40;;;;;;;23.92;54.91;94463.03;4926987;29;20206;-85
2023/07/28 10:50:20;;;;;;;4.47;4.07;;;;;;;24.01;54.65;94466.56;4929290;29;20217;-85
2023/07/28 10:52:47;;;;;;;2.60;2.40;;;;;;;24.07;55.07;94478.56;4943097;29;20202;-86
2023/07/28 10:55:27;;;;;;;2.10;2.00;;;;;;;24.19;54.65;94470.22;4942615;29;20285;-85
2023/07/28 10:57:58;;;;;;;2.40;2.30;;;;;;;24.29;54.49;94464.81;4944462;29;20198;-85
2023/07/28 11:00:25;;;;;;;2.33;2.13;;;;;;;24.27;54.09;94464.31;4932331;29;20308;-84
2023/07/28 11:02:55;;;;;;;2.75;2.40;;;;;;;24.37;54.55;94461.53;4938398;29;20202;-84
2023/07/28 11:05:24;;;;;;;2.30;2.10;;;;;;;24.38;53.73;94447.31;4929991;29;20221;-85
2023/07/28 11:07:52;;;;;;;2.65;2.45;;;;;;;24.36;53.63;94432.88;4939926;29;20206;-85
2023/07/28 11:10:20;;;;;;;4.70;2.15;;;;;;;24.53;54.00;94435.72;4943620;29;20208;-85
2023/07/28 11:12:50;;;;;;;2.28;2.10;;;;;;;24.75;53.05;94408.69;4943379;29;20205;-84
2023/07/28 11:15:17;;;;;;;2.60;2.40;;;;;;;24.75;53.38;94416.59;4943890;29;20256;-85
2023/07/28 11:17:49;;;;;;;2.50;2.30;;;;;;;24.81;54.07;94438.34;4944140;29;20209;-85
2023/07/28 11:20:28;;;;;;;2.50;2.30;;;;;;;24.76;52.55;94397.09;4940043;29;20208;-84
2023/07/28 11:23:03;;;;;;;3.45;2.10;;;;;;;24.66;53.19;94387.53;4945826;29;20229;-85
2023/07/28 11:25:33;;;;;;;3.17;2.33;;;;;;;24.44;53.26;94385.59;4934890;29;20244;-85
2023/07/28 11:28:02;;;;;;;2.72;2.53;;;;;;;24.37;53.34;94400.22;4943276;29;20225;-86
2023/07/28 11:30:32;;;;;;;2.67;2.47;;;;;;;24.36;53.79;94432.88;4931695;29;20205;-84
2023/07/28 11:33:12;;;;;;;2.58;2.38;;;;;;;24.39;53.56;94425.19;4927558;29;20206;-84
2023/07/28 11:35:40;;;;;;;2.40;2.20;;;;;;;24.41;53.45;94411.75;4925313;29;20266;-86
2023/07/28 11:38:09;;;;;;;2.30;2.10;;;;;;;24.40;53.44;94420.69;4924095;29;20252;-85
2023/07/28 11:40:36;;;;;;;3.90;2.30;;;;;;;24.43;53.67;94435.91;4931408;29;20232;-83
2023/07/28 11:43:03;;;;;;;2.33;2.13;;;;;;;24.39;54.20;94459.38;4920423;29;20203;-85
2023/07/28 11:45:34;;;;;;;2.55;2.15;;;;;;;24.43;54.79;94462.22;4932514;29;20226;-84
2023/07/28 11:48:04;;;;;;;5.50;2.50;;;;;;;24.44;54.11;94445.34;4937812;29;20209;-84
2023/07/28 11:50:35;;;;;;;3.30;2.40;;;;;;;24.35;53.40;94418.94;4930262;29;20225;-84
2023/07/28 11:53:02;;;;;;;2.67;2.35;;;;;;;24.44;53.71;94417.16;4940564;29;20205;-86
2023/07/28 11:55:36;;;;;;;2.25;2.15;;;;;;;24.51;53.76;94423.91;4942469;29;20252;-85
2023/07/28 11:58:06;;;;;;;2.22;2.10;;;;;;;24.53;52.45;94355.97;4942301;29;20209;-86
2023/07/28 12:00:37;;;;;;;2.95;2.33;;;;;;;24.52;52.31;94338.63;4937040;29;20222;-87
2023/07/28 12:03:18;;;;;;;2.38;2.17;;;;;;;24.60;52.18;94345.84;4928628;29;20214;-86
2023/07/28 12:06:12;;;;;;;2.53;2.30;;;;;;;24.98;52.06;94362.19;4922198;29;20767;-85
2023/07/28 12:08:50;;;;;;;2.45;2.05;;;;;;;25.30;51.39;94303.25;4924875;29;20685;-86
2023/07/28 12:11:23;;;;;;;2.50;2.30;;;;;;;25.36;50.69;94265.16;4919072;29;20202;-86
2023/07/28 12:13:55;;;;;;;2.80;2.20;;;;;;;25.41;50.70;94268.41;4922526;29;20265;-85
2023/07/28 12:16:40;;;;;;;2.20;2.00;;;;;;;25.37;51.09;94288.56;4922268;29;20229;-85
2023/07/28 12:19:07;;;;;;;3.65;2.65;;;;;;;25.41;51.28;94300.03;4927693;29;20949;-83
2023/07/28 12:21:38;;;;;;;6.18;2.17;;;;;;;25.63;51.23;94301.91;4922447;29;20237;-85
2023/07/28 12:24:07;;;;;;;2.72;2.42;;;;;;;25.67;51.13;94291.53;4936307;29;20210;-85
2023/07/28 12:26:38;;;;;;;2.65;2.45;;;;;;;25.74;51.14;94297.19;4923587;29;20222;-85
2023/07/28 12:29:04;;;;;;;4.30;2.33;;;;;;;25.74;51.20;94305.88;4926751;29;20209;-85